Wheat Ridge, CO (80033)

3:45 PM MDT on August 29, 2016 (GMT -0600)
Lena Gulch @ 38th St | | Change Station

Elev 5413 ft 39.77 °N, 105.12 °W | Updated 8 seconds ago

Light Thunderstorms and Rain
Light Thunderstorm Rain
60.0 °F
Feels Like 60.0 °F
N
2.0
Wind Variable Wind from WSW
Gusts 2.0 mph

Today
High -- | Low -- °F
--% Chance of Precip.
Yesterday
High -- | Low -- °F
Precip. -- in
Pressure 30.31 in
Visibility 30.0 miles
Clouds Scattered Clouds 7000 ft
Mostly Cloudy 8000 ft
Mostly Cloudy 11000 ft
Dew Point 56 °F
Humidity 86%
Rainfall 0.38 in
Snow Depth Not available.
6:26 AM 7:35 PM
Waning Crescent, 7% visible
SPECI KBJC 292057Z 14012G20KT 30SM -TSRA SCT070 BKN080CB BKN110 23/08 A3031 RMK OCNL LTG OHD TSB55 TS OHD MOV N CB ALQDS
Pressure 30.31 in
Visibility 30.0 miles
Clouds Scattered Clouds 7000 ft
Mostly Cloudy 8000 ft
Mostly Cloudy 11000 ft
Dew Point 56 °F
Humidity 86%
Rainfall 0.38 in
Snow Depth Not available.
6:26 AM 7:35 PM
Waning Crescent, 7% visible
SPECI KBJC 292057Z 14012G20KT 30SM -TSRA SCT070 BKN080CB BKN110 23/08 A3031 RMK OCNL LTG OHD TSB55 TS OHD MOV N CB ALQDS

10-Day Weather Forecast

Almanac

Astronomy

Aug. 29, 2016 Rise Set
Actual Time
Civil Twilight
Nautical Twilight
Astronomical Twilight
Moon
Length of Visible Light
Length of Day
Tomorrow will be .
, % of the Moon is Illuminated

Today's Extremes

State Highs State Lows

Community

WunderPhotos

Upload Photos

1,935,690 photos uploaded!

WunderBlog® & News

Nearby

Air Quality

  Air Quality AQ Index Pollutant
Not available.

Snow Depth

Station Depth Elevation

Earthquake Activity

City Distance Mag. Time & Date
Minimum magnitude displayed is 2.5.

Coastal Water Temperatures

Place Temperature

Stations

Nearby Weather Stations

Station Location Temp. Windchill Dew Point Humidity Wind Precip. Elev Updated Type
                   

Watches & Warnings

There are currently no watches in effect.